Time,TemperatureF,DewpointF,PressureIn,WindDirection,WindDirectionDegrees,WindSpeedMPH,WindSpeedGustMPH,Humidity,HourlyPrecipIn,Conditions,Clouds,dailyrainin,SoftwareType,DateUTC
2013-03-10 00:03:00,23.0,18.0,30.13,SE,135,1.0,1.0,86,0.00,,,0.00,TxWx,2013-03-10 05:03:00,
2013-03-10 00:08:00,23.0,17.0,30.13,ESE,112,1.0,1.0,86,0.00,,,0.00,TxWx,2013-03-10 05:08:00,
2013-03-10 00:13:00,23.0,19.0,30.13,South,180,0.0,0.0,87,0.00,,,0.00,TxWx,2013-03-10 05:13:00,
2013-03-10 00:18:00,23.0,19.0,30.13,SE,135,1.0,1.0,87,0.00,,,0.00,TxWx,2013-03-10 05:18:00,
2013-03-10 00:24:00,23.0,19.0,30.13,SSW,202,1.0,1.0,87,0.00,,,0.00,TxWx,2013-03-10 05:24:00,
2013-03-10 00:29:00,23.0,19.0,30.13,South,180,0.0,0.0,87,0.00,,,0.00,TxWx,2013-03-10 05:29:00,
2013-03-10 00:34:00,22.0,18.0,30.13,SSE,157,0.0,0.0,87,0.00,,,0.00,TxWx,2013-03-10 05:34:00,
2013-03-10 00:39:00,22.0,18.0,30.13,SSW,202,0.0,0.0,87,0.00,,,0.00,TxWx,2013-03-10 05:39:00,
2013-03-10 00:44:00,22.0,18.0,30.13,SSW,202,0.0,0.0,87,0.00,,,0.00,TxWx,2013-03-10 05:44:00,
2013-03-10 00:49:00,22.0,18.0,30.13,South,180,0.0,0.0,87,0.00,,,0.00,TxWx,2013-03-10 05:49:00,
2013-03-10 00:54:00,22.0,18.0,30.13,South,180,1.0,1.0,87,0.00,,,0.00,TxWx,2013-03-10 05:54:00,
2013-03-10 00:59:00,22.0,18.0,30.13,SSE,157,0.0,1.0,87,0.00,,,0.00,TxWx,2013-03-10 05:59:00,
2013-03-10 01:04:00,21.0,17.0,30.13,South,180,1.0,1.0,87,0.00,,,0.00,TxWx,2013-03-10 06:04:00,
2013-03-10 01:10:00,21.0,17.0,30.13,South,180,0.0,0.0,88,0.00,,,0.00,TxWx,2013-03-10 06:10:00,
2013-03-10 01:11:00,47.0,22.0,30.05,SSW,202,1.0,2.0,39,0.00,,,0.00,TxWx,2013-03-10 06:11:00,
2013-03-10 01:12:00,47.0,22.0,30.05,South,180,0.0,1.0,39,0.00,,,0.00,TxWx,2013-03-10 06:12:00,
2013-03-10 01:13:00,47.0,21.0,30.05,South,180,2.0,4.0,38,0.00,,,0.00,TxWx,2013-03-10 06:13:00,
2013-03-10 01:15:00,21.0,17.0,30.13,South,180,0.0,0.0,88,0.00,,,0.00,TxWx,2013-03-10 06:15:00,
2013-03-10 01:20:00,20.0,16.0,30.12,SSW,202,0.0,0.0,88,0.00,,,0.00,TxWx,2013-03-10 06:20:00,
2013-03-10 01:25:00,20.0,16.0,30.12,SSW,202,0.0,0.0,88,0.00,,,0.00,TxWx,2013-03-10 06:25:00,
2013-03-10 01:30:00,20.0,16.0,30.12,SE,135,1.0,1.0,89,0.00,,,0.00,TxWx,2013-03-10 06:30:00,
2013-03-10 01:35:00,21.0,17.0,30.12,SE,135,1.0,1.0,89,0.00,,,0.00,TxWx,2013-03-10 06:35:00,
2013-03-10 01:40:00,21.0,17.0,30.12,South,180,0.0,0.0,90,0.00,,,0.00,TxWx,2013-03-10 06:40:00,
2013-03-10 01:45:00,21.0,17.0,30.12,ESE,112,0.0,0.0,90,0.00,,,0.00,TxWx,2013-03-10 06:45:00,
2013-03-10 01:50:00,21.0,17.0,30.11,South,180,0.0,0.0,90,0.00,,,0.00,TxWx,2013-03-10 06:50:00,
2013-03-10 01:56:00,21.0,18.0,30.11,SSE,157,1.0,1.0,90,0.00,,,0.00,TxWx,2013-03-10 06:56:00,
2013-03-10 03:01:00,21.0,18.0,30.12,South,180,0.0,0.0,90,0.00,,,0.00,TxWx,2013-03-10 07:01:00,
2013-03-10 03:06:00,21.0,18.0,30.11,South,180,0.0,1.0,90,0.00,,,0.00,TxWx,2013-03-10 07:06:00,
2013-03-10 03:11:00,21.0,18.0,30.11,SSE,157,1.0,1.0,90,0.00,,,0.00,TxWx,2013-03-10 07:11:00,
2013-03-10 03:16:00,21.0,18.0,30.11,SE,135,1.0,1.0,90,0.00,,,0.00,TxWx,2013-03-10 07:16:00,
2013-03-10 03:21:00,20.0,17.0,30.10,South,180,1.0,1.0,90,0.00,,,0.00,TxWx,2013-03-10 07:21:00,
2013-03-10 03:26:00,20.0,17.0,30.10,SSE,157,0.0,1.0,91,0.00,,,0.00,TxWx,2013-03-10 07:26:00,
2013-03-10 03:31:00,20.0,17.0,30.10,South,180,1.0,1.0,91,0.00,,,0.00,TxWx,2013-03-10 07:31:00,
2013-03-10 03:36:00,20.0,17.0,30.10,SSE,157,1.0,1.0,91,0.00,,,0.00,TxWx,2013-03-10 07:36:00,
2013-03-10 03:41:00,20.0,17.0,30.10,SE,135,1.0,1.0,91,0.00,,,0.00,TxWx,2013-03-10 07:41:00,
2013-03-10 03:47:00,20.0,17.0,30.10,South,180,0.0,1.0,92,0.00,,,0.00,TxWx,2013-03-10 07:47:00,
2013-03-10 03:52:00,20.0,17.0,30.10,SE,135,2.0,2.0,92,0.00,,,0.00,TxWx,2013-03-10 07:52:00,
2013-03-10 03:57:00,20.0,17.0,30.09,SE,135,1.0,1.0,92,0.00,,,0.00,TxWx,2013-03-10 07:57:00,
2013-03-10 04:02:00,20.0,17.0,30.09,NE,45,1.0,2.0,92,0.00,,,0.00,TxWx,2013-03-10 08:02:00,
2013-03-10 04:07:00,20.0,17.0,30.09,NE,45,1.0,1.0,92,0.00,,,0.00,TxWx,2013-03-10 08:07:00,
2013-03-10 04:12:00,20.0,17.0,30.09,SSW,202,0.0,1.0,92,0.00,,,0.00,TxWx,2013-03-10 08:12:00,
2013-03-10 04:17:00,20.0,17.0,30.09,SSE,157,0.0,1.0,92,0.00,,,0.00,TxWx,2013-03-10 08:17:00,
2013-03-10 04:22:00,20.0,17.0,30.09,SW,225,0.0,1.0,92,0.00,,,0.00,TxWx,2013-03-10 08:22:00,
2013-03-10 04:27:00,20.0,17.0,30.10,SE,135,0.0,1.0,93,0.00,,,0.00,TxWx,2013-03-10 08:27:00,
2013-03-10 04:32:00,20.0,17.0,30.10,ESE,112,1.0,1.0,93,0.00,,,0.00,TxWx,2013-03-10 08:32:00,
2013-03-10 04:38:00,20.0,17.0,30.10,SSE,157,0.0,0.0,93,0.00,,,0.00,TxWx,2013-03-10 08:38:00,
2013-03-10 04:43:00,20.0,17.0,30.10,South,180,0.0,1.0,93,0.00,,,0.00,TxWx,2013-03-10 08:43:00,
2013-03-10 04:48:00,20.0,17.0,30.10,SSW,202,0.0,1.0,93,0.00,,,0.00,TxWx,2013-03-10 08:48:00,
2013-03-10 04:53:00,20.0,17.0,30.10,SSW,202,0.0,0.0,93,0.00,,,0.00,TxWx,2013-03-10 08:53:00,
2013-03-10 04:58:00,19.0,16.0,30.10,SE,135,1.0,1.0,93,0.00,,,0.00,TxWx,2013-03-10 08:58:00,
2013-03-10 05:06:00,19.0,16.0,30.10,SSE,157,0.0,0.0,93,0.00,,,0.00,TxWx,2013-03-10 09:06:00,
2013-03-10 05:11:00,19.0,16.0,30.10,SE,135,1.0,1.0,93,0.00,,,0.00,TxWx,2013-03-10 09:11:00,
2013-03-10 05:16:00,19.0,16.0,30.10,East,90,1.0,2.0,93,0.00,,,0.00,TxWx,2013-03-10 09:16:00,
2013-03-10 05:21:00,19.0,16.0,30.10,SSW,202,0.0,0.0,93,0.00,,,0.00,TxWx,2013-03-10 09:21:00,
2013-03-10 05:26:00,19.0,16.0,30.10,SSE,157,0.0,1.0,94,0.00,,,0.00,TxWx,2013-03-10 09:26:00,
2013-03-10 05:31:00,19.0,17.0,30.10,ESE,112,2.0,2.0,94,0.00,,,0.00,TxWx,2013-03-10 09:31:00,
2013-03-10 05:37:00,19.0,17.0,30.10,SSW,202,0.0,0.0,94,0.00,,,0.00,TxWx,2013-03-10 09:37:00,
2013-03-10 05:40:00,49.0,18.0,29.99,South,180,6.0,6.0,31,0.00,,,0.00,TxWx,2013-03-10 09:40:00,
2013-03-10 05:41:00,49.0,18.0,29.99,South,180,3.0,4.0,31,0.00,,,0.00,TxWx,2013-03-10 09:41:00,
2013-03-10 05:42:00,19.0,17.0,30.10,SW,225,1.0,1.0,94,0.00,,,0.00,TxWx,2013-03-10 09:42:00,
2013-03-10 05:43:00,49.0,19.0,29.99,South,180,3.0,3.0,31,0.00,,,0.00,TxWx,2013-03-10 09:43:00,
2013-03-10 05:44:00,49.0,19.0,29.99,SW,225,5.0,7.0,31,0.00,,,0.00,TxWx,2013-03-10 09:44:00,
2013-03-10 05:45:00,49.0,18.0,29.99,South,180,4.0,6.0,31,0.00,,,0.00,TxWx,2013-03-10 09:45:00,
2013-03-10 05:47:00,19.0,17.0,30.10,SSE,157,1.0,1.0,95,0.00,,,0.00,TxWx,2013-03-10 09:47:00,
2013-03-10 05:50:00,49.0,18.0,29.98,SSW,202,2.0,3.0,30,0.00,,,0.00,TxWx,2013-03-10 09:50:00,
2013-03-10 05:52:00,19.0,17.0,30.11,South,180,0.0,0.0,95,0.00,,,0.00,TxWx,2013-03-10 09:52:00,
2013-03-10 05:56:00,49.0,18.0,29.98,ENE,67,3.0,5.0,31,0.00,,,0.00,TxWx,2013-03-10 09:56:00,
2013-03-10 05:57:00,19.0,17.0,30.11,SSW,202,0.0,0.0,95,0.00,,,0.00,TxWx,2013-03-10 09:57:00,
2013-03-10 05:58:00,49.0,18.0,29.98,ESE,112,6.0,7.0,30,0.00,,,0.00,TxWx,2013-03-10 09:58:00,
2013-03-10 05:59:00,49.0,18.0,29.98,ESE,112,9.0,9.0,31,0.00,,,0.00,TxWx,2013-03-10 09:59:00,
2013-03-10 06:02:00,20.0,18.0,30.11,SE,135,1.0,1.0,95,0.00,,,0.00,TxWx,2013-03-10 10:02:00,
2013-03-10 06:07:00,20.0,18.0,30.11,East,90,2.0,3.0,95,0.00,,,0.00,TxWx,2013-03-10 10:07:00,
2013-03-10 06:12:00,20.0,18.0,30.11,SW,225,1.0,1.0,95,0.00,,,0.00,TxWx,2013-03-10 10:12:00,
2013-03-10 06:17:00,19.0,17.0,30.11,North,0,3.0,3.0,95,0.00,,,0.00,TxWx,2013-03-10 10:17:00,
2013-03-10 06:22:00,19.0,17.0,30.11,SE,135,1.0,1.0,95,0.00,,,0.00,TxWx,2013-03-10 10:22:00,
2013-03-10 06:28:00,19.0,17.0,30.11,SE,135,3.0,3.0,96,0.00,,,0.00,TxWx,2013-03-10 10:28:00,
2013-03-10 06:33:00,19.0,17.0,30.11,SE,135,2.0,3.0,96,0.00,,,0.00,TxWx,2013-03-10 10:33:00,
2013-03-10 06:38:00,19.0,17.0,30.11,ESE,112,1.0,2.0,96,0.00,,,0.00,TxWx,2013-03-10 10:38:00,
2013-03-10 06:43:00,19.0,17.0,30.11,SSW,202,1.0,1.0,96,0.00,,,0.00,TxWx,2013-03-10 10:43:00,
2013-03-10 06:48:00,19.0,17.0,30.12,North,0,1.0,1.0,96,0.00,,,0.00,TxWx,2013-03-10 10:48:00,
2013-03-10 06:53:00,18.0,16.0,30.12,SSW,202,0.0,0.0,96,0.00,,,0.00,TxWx,2013-03-10 10:53:00,
2013-03-10 06:58:00,18.0,16.0,30.12,NE,45,2.0,2.0,96,0.00,,,0.00,TxWx,2013-03-10 10:58:00,
2013-03-10 07:03:00,18.0,16.0,30.12,South,180,1.0,2.0,96,0.00,,,0.00,TxWx,2013-03-10 11:03:00,
2013-03-10 07:08:00,18.0,16.0,30.11,SSW,202,0.0,1.0,96,0.00,,,0.00,TxWx,2013-03-10 11:08:00,
2013-03-10 07:13:00,18.0,16.0,30.11,South,180,0.0,0.0,96,0.00,,,0.00,TxWx,2013-03-10 11:13:00,
2013-03-10 07:19:00,18.0,16.0,30.11,SE,135,1.0,1.0,96,0.00,,,0.00,TxWx,2013-03-10 11:19:00,
2013-03-10 07:24:00,18.0,16.0,30.12,SSW,202,0.0,0.0,96,0.00,,,0.00,TxWx,2013-03-10 11:24:00,
2013-03-10 07:29:00,18.0,16.0,30.11,SSW,202,0.0,1.0,96,0.00,,,0.00,TxWx,2013-03-10 11:29:00,
2013-03-10 07:34:00,18.0,16.0,30.11,North,0,2.0,2.0,97,0.00,,,0.00,TxWx,2013-03-10 11:34:00,
2013-03-10 07:39:00,18.0,16.0,30.11,South,180,0.0,0.0,97,0.00,,,0.00,TxWx,2013-03-10 11:39:00,
2013-03-10 07:44:00,18.0,16.0,30.12,South,180,0.0,0.0,97,0.00,,,0.00,TxWx,2013-03-10 11:44:00,
2013-03-10 07:49:00,18.0,16.0,30.11,SE,135,2.0,2.0,97,0.00,,,0.00,TxWx,2013-03-10 11:49:00,
2013-03-10 07:54:00,19.0,17.0,30.11,SSE,157,1.0,1.0,97,0.00,,,0.00,TxWx,2013-03-10 11:54:00,
2013-03-10 07:59:00,19.0,17.0,30.11,East,90,1.0,1.0,97,0.00,,,0.00,TxWx,2013-03-10 11:59:00,
2013-03-10 08:04:00,19.0,17.0,30.11,South,180,1.0,1.0,97,0.00,,,0.00,TxWx,2013-03-10 12:04:00,
2013-03-10 08:10:00,19.0,17.0,30.11,SW,225,1.0,1.0,97,0.00,,,0.00,TxWx,2013-03-10 12:10:00,
2013-03-10 08:15:00,19.0,17.0,30.11,SE,135,1.0,1.0,97,0.00,,,0.00,TxWx,2013-03-10 12:15:00,
2013-03-10 08:20:00,19.0,17.0,30.11,South,180,0.0,0.0,97,0.00,,,0.00,TxWx,2013-03-10 12:20:00,
2013-03-10 08:25:00,19.0,17.0,30.11,South,180,0.0,0.0,97,0.00,,,0.00,TxWx,2013-03-10 12:25:00,
2013-03-10 08:30:00,20.0,18.0,30.11,SE,135,1.0,1.0,98,0.00,,,0.00,TxWx,2013-03-10 12:30:00,
2013-03-10 08:35:00,20.0,18.0,30.11,SE,135,2.0,3.0,97,0.00,,,0.00,TxWx,2013-03-10 12:35:00,
2013-03-10 08:40:00,21.0,19.0,30.10,South,180,1.0,1.0,98,0.00,,,0.00,TxWx,2013-03-10 12:40:00,
2013-03-10 08:45:00,21.0,19.0,30.11,South,180,0.0,0.0,98,0.00,,,0.00,TxWx,2013-03-10 12:45:00,
2013-03-10 08:50:00,22.0,20.0,30.11,SE,135,2.0,3.0,98,0.00,,,0.00,TxWx,2013-03-10 12:50:00,
2013-03-10 08:56:00,23.0,21.0,30.10,SE,135,3.0,5.0,97,0.00,,,0.00,TxWx,2013-03-10 12:56:00,
2013-03-10 09:01:00,23.0,21.0,30.10,East,90,2.0,2.0,97,0.00,,,0.00,TxWx,2013-03-10 13:01:00,
2013-03-10 09:05:00,42.0,21.0,29.97,East,90,4.0,4.0,45,0.00,,,0.00,TxWx,2013-03-10 13:05:00,
2013-03-10 09:06:00,24.0,22.0,30.10,SSW,202,2.0,3.0,96,0.00,,,0.00,TxWx,2013-03-10 13:06:00,
2013-03-10 09:11:00,25.0,23.0,30.11,South,180,1.0,1.0,96,0.00,,,0.00,TxWx,2013-03-10 13:11:00,
2013-03-10 09:15:00,42.0,21.0,29.97,ENE,67,3.0,4.0,46,0.00,,,0.00,TxWx,2013-03-10 13:15:00,
2013-03-10 09:16:00,26.0,24.0,30.10,ESE,112,3.0,3.0,95,0.00,,,0.00,TxWx,2013-03-10 13:16:00,
2013-03-10 09:17:00,42.0,21.0,29.97,SSW,202,2.0,4.0,45,0.00,,,0.00,TxWx,2013-03-10 13:17:00,
2013-03-10 09:18:00,42.0,21.0,29.97,SE,135,1.0,3.0,46,0.00,,,0.00,TxWx,2013-03-10 13:18:00,
2013-03-10 09:19:00,42.0,21.0,29.97,East,90,3.0,4.0,46,0.00,,,0.00,TxWx,2013-03-10 13:19:00,
2013-03-10 09:21:00,27.0,24.0,30.10,SE,135,1.0,2.0,93,0.00,,,0.00,TxWx,2013-03-10 13:21:00,
2013-03-10 09:26:00,27.0,24.0,30.10,SSE,157,1.0,2.0,91,0.00,,,0.00,TxWx,2013-03-10 13:26:00,
2013-03-10 09:31:00,28.0,24.0,30.10,SE,135,2.0,3.0,90,0.00,,,0.00,TxWx,2013-03-10 13:31:00,
2013-03-10 09:36:00,29.0,25.0,30.10,East,90,1.0,2.0,87,0.00,,,0.00,TxWx,2013-03-10 13:36:00,
2013-03-10 09:41:00,31.0,26.0,30.10,SE,135,1.0,2.0,86,0.00,,,0.00,TxWx,2013-03-10 13:41:00,
2013-03-10 09:47:00,32.0,26.0,30.10,ESE,112,2.0,2.0,83,0.00,,,0.00,TxWx,2013-03-10 13:47:00,
2013-03-10 09:52:00,33.0,27.0,30.09,SSW,202,1.0,1.0,80,0.00,,,0.00,TxWx,2013-03-10 13:52:00,
2013-03-10 09:57:00,33.0,26.0,30.09,ESE,112,3.0,3.0,77,0.00,,,0.00,TxWx,2013-03-10 13:57:00,
2013-03-10 10:02:00,34.0,26.0,30.09,South,180,1.0,1.0,74,0.00,,,0.00,TxWx,2013-03-10 14:02:00,
2013-03-10 10:07:00,35.0,25.0,30.08,ESE,112,4.0,4.0,70,0.00,,,0.00,TxWx,2013-03-10 14:07:00,
2013-03-10 10:12:00,36.0,25.0,30.08,ENE,67,4.0,5.0,68,0.00,,,0.00,TxWx,2013-03-10 14:12:00,
2013-03-10 10:17:00,37.0,25.0,30.08,ESE,112,4.0,5.0,64,0.00,,,0.00,TxWx,2013-03-10 14:17:00,
2013-03-10 10:22:00,38.0,24.0,30.08,SE,135,1.0,3.0,59,0.00,,,0.00,TxWx,2013-03-10 14:22:00,
2013-03-10 10:27:00,40.0,25.0,30.08,South,180,1.0,1.0,56,0.00,,,0.00,TxWx,2013-03-10 14:27:00,
2013-03-10 10:32:00,41.0,25.0,30.08,South,180,0.0,1.0,55,0.00,,,0.00,TxWx,2013-03-10 14:32:00,
2013-03-10 10:35:00,39.0,21.0,29.98,ENE,67,3.0,3.0,50,0.00,,,0.00,TxWx,2013-03-10 14:35:00,
2013-03-10 10:38:00,41.0,23.0,30.07,ESE,112,5.0,6.0,51,0.00,,,0.00,TxWx,2013-03-10 14:38:00,
2013-03-10 10:43:00,41.0,22.0,30.07,ENE,67,6.0,7.0,49,0.00,,,0.00,TxWx,2013-03-10 14:43:00,
2013-03-10 10:48:00,42.0,22.0,30.07,ESE,112,4.0,5.0,48,0.00,,,0.00,TxWx,2013-03-10 14:48:00,
2013-03-10 10:50:00,38.0,21.0,29.99,SE,135,1.0,3.0,53,0.00,,,0.00,TxWx,2013-03-10 14:50:00,
2013-03-10 10:51:00,38.0,21.0,29.99,East,90,2.0,2.0,53,0.00,,,0.00,TxWx,2013-03-10 14:51:00,
2013-03-10 10:52:00,38.0,21.0,29.99,East,90,2.0,2.0,53,0.00,,,0.00,TxWx,2013-03-10 14:52:00,
2013-03-10 10:53:00,42.0,23.0,30.07,ENE,67,5.0,6.0,49,0.00,,,0.00,TxWx,2013-03-10 14:53:00,
2013-03-10 10:54:00,38.0,21.0,29.99,ENE,67,3.0,3.0,53,0.00,,,0.00,TxWx,2013-03-10 14:54:00,
2013-03-10 10:58:00,43.0,23.0,30.07,SE,135,2.0,3.0,46,0.00,,,0.00,TxWx,2013-03-10 14:58:00,
2013-03-10 11:03:00,44.0,23.0,30.07,SSE,157,1.0,3.0,46,0.00,,,0.00,TxWx,2013-03-10 15:03:00,
2013-03-10 11:08:00,44.0,23.0,30.07,SE,135,1.0,2.0,45,0.00,,,0.00,TxWx,2013-03-10 15:08:00,
2013-03-10 11:13:00,45.0,23.0,30.07,ESE,112,4.0,5.0,43,0.00,,,0.00,TxWx,2013-03-10 15:13:00,
2013-03-10 11:18:00,45.0,21.0,30.07,SSE,157,4.0,6.0,41,0.00,,,0.00,TxWx,2013-03-10 15:18:00,
2013-03-10 11:24:00,45.0,21.0,30.07,SSW,202,7.0,7.0,40,0.00,,,0.00,TxWx,2013-03-10 15:24:00,
2013-03-10 11:29:00,45.0,20.0,30.06,SSW,202,3.0,3.0,39,0.00,,,0.00,TxWx,2013-03-10 15:29:00,
2013-03-10 11:34:00,45.0,20.0,30.06,SSW,202,6.0,8.0,39,0.00,,,0.00,TxWx,2013-03-10 15:34:00,
2013-03-10 11:39:00,45.0,20.0,30.06,SSW,202,9.0,10.0,39,0.00,,,0.00,TxWx,2013-03-10 15:39:00,
2013-03-10 11:44:00,46.0,21.0,30.06,ESE,112,4.0,5.0,38,0.00,,,0.00,TxWx,2013-03-10 15:44:00,
2013-03-10 11:49:00,45.0,20.0,30.06,South,180,4.0,4.0,38,0.00,,,0.00,TxWx,2013-03-10 15:49:00,
2013-03-10 11:50:00,38.0,21.0,29.99,SE,135,1.0,1.0,53,0.00,,,0.00,TxWx,2013-03-10 15:50:00,
2013-03-10 11:52:00,38.0,21.0,29.99,SSW,202,0.0,1.0,53,0.00,,,0.00,TxWx,2013-03-10 15:52:00,
2013-03-10 11:53:00,38.0,22.0,29.99,ENE,67,1.0,1.0,54,0.00,,,0.00,TxWx,2013-03-10 15:53:00,
2013-03-10 11:54:00,46.0,21.0,30.06,SE,135,4.0,6.0,38,0.00,,,0.00,TxWx,2013-03-10 15:54:00,
2013-03-10 11:55:00,38.0,22.0,29.99,SE,135,1.0,1.0,54,0.00,,,0.00,TxWx,2013-03-10 15:55:00,
2013-03-10 11:59:00,45.0,20.0,30.06,SSW,202,5.0,5.0,38,0.00,,,0.00,TxWx,2013-03-10 15:59:00,
2013-03-10 12:04:00,46.0,21.0,30.05,SE,135,2.0,3.0,39,0.00,,,0.00,TxWx,2013-03-10 16:04:00,
2013-03-10 12:09:00,47.0,22.0,30.05,SW,225,1.0,2.0,39,0.00,,,0.00,TxWx,2013-03-10 16:09:00,
2013-03-10 12:15:00,48.0,22.0,30.05,SSE,157,1.0,1.0,38,0.00,,,0.00,TxWx,2013-03-10 16:15:00,
2013-03-10 12:20:00,48.0,22.0,30.05,SW,225,1.0,1.0,37,0.00,,,0.00,TxWx,2013-03-10 16:20:00,
2013-03-10 12:25:00,48.0,20.0,30.05,SE,135,8.0,10.0,34,0.00,,,0.00,TxWx,2013-03-10 16:25:00,
2013-03-10 12:30:00,48.0,21.0,30.05,WSW,247,11.0,11.0,35,0.00,,,0.00,TxWx,2013-03-10 16:30:00,
2013-03-10 12:35:00,48.0,19.0,30.05,South,180,11.0,14.0,33,0.00,,,0.00,TxWx,2013-03-10 16:35:00,
2013-03-10 12:41:00,48.0,19.0,30.05,ESE,112,3.0,3.0,33,0.00,,,0.00,TxWx,2013-03-10 16:41:00,
2013-03-10 12:46:00,48.0,19.0,30.05,West,270,2.0,3.0,33,0.00,,,0.00,TxWx,2013-03-10 16:46:00,
2013-03-10 12:51:00,48.0,19.0,30.04,WNW,292,3.0,5.0,33,0.00,,,0.00,TxWx,2013-03-10 16:51:00,
2013-03-10 12:56:00,48.0,19.0,30.04,West,270,3.0,4.0,33,0.00,,,0.00,TxWx,2013-03-10 16:56:00,
2013-03-10 13:00:00,38.0,22.0,30.00,SSE,157,0.0,0.0,56,0.00,,,0.00,TxWx,2013-03-10 17:00:00,
2013-03-10 13:01:00,48.0,19.0,30.04,ESE,112,3.0,6.0,33,0.00,,,0.00,TxWx,2013-03-10 17:01:00,
2013-03-10 13:06:00,48.0,19.0,30.04,South,180,1.0,2.0,33,0.00,,,0.00,TxWx,2013-03-10 17:06:00,
2013-03-10 13:10:00,38.0,22.0,29.99,ENE,67,1.0,2.0,55,0.00,,,0.00,TxWx,2013-03-10 17:10:00,
2013-03-10 13:11:00,48.0,19.0,30.04,SSW,202,8.0,8.0,33,0.00,,,0.00,TxWx,2013-03-10 17:11:00,
2013-03-10 13:12:00,38.0,22.0,29.99,ESE,112,1.0,2.0,55,0.00,,,0.00,TxWx,2013-03-10 17:12:00,
2013-03-10 13:13:00,38.0,22.0,29.99,ESE,112,2.0,2.0,55,0.00,,,0.00,TxWx,2013-03-10 17:13:00,
2013-03-10 13:14:00,38.0,22.0,29.99,ESE,112,2.0,3.0,55,0.00,,,0.00,TxWx,2013-03-10 17:14:00,
2013-03-10 13:16:00,48.0,19.0,30.03,SSW,202,6.0,6.0,33,0.00,,,0.00,TxWx,2013-03-10 17:16:00,
2013-03-10 13:21:00,48.0,18.0,30.03,SW,225,5.0,7.0,32,0.00,,,0.00,TxWx,2013-03-10 17:21:00,
2013-03-10 13:26:00,48.0,19.0,30.03,SE,135,8.0,8.0,32,0.00,,,0.00,TxWx,2013-03-10 17:26:00,
2013-03-10 13:32:00,48.0,18.0,30.03,SSW,202,4.0,5.0,32,0.00,,,0.00,TxWx,2013-03-10 17:32:00,
2013-03-10 13:37:00,49.0,19.0,30.03,ESE,112,5.0,7.0,32,0.00,,,0.00,TxWx,2013-03-10 17:37:00,
2013-03-10 13:42:00,49.0,19.0,30.03,SSE,157,4.0,4.0,32,0.00,,,0.00,TxWx,2013-03-10 17:42:00,
2013-03-10 13:47:00,50.0,19.0,30.03,South,180,4.0,4.0,31,0.00,,,0.00,TxWx,2013-03-10 17:47:00,
2013-03-10 13:52:00,50.0,19.0,30.02,SW,225,5.0,6.0,30,0.00,,,0.00,TxWx,2013-03-10 17:52:00,
2013-03-10 13:57:00,50.0,19.0,30.02,South,180,3.0,3.0,30,0.00,,,0.00,TxWx,2013-03-10 17:57:00,
2013-03-10 13:59:00,37.0,23.0,29.99,ESE,112,1.0,1.0,58,0.00,,,0.00,TxWx,2013-03-10 17:59:00,
2013-03-10 14:00:00,37.0,23.0,29.99,SSE,157,1.0,1.0,58,0.00,,,0.00,TxWx,2013-03-10 18:00:00,
2013-03-10 14:01:00,37.0,23.0,29.99,South,180,1.0,1.0,58,0.00,,,0.00,TxWx,2013-03-10 18:01:00,
2013-03-10 14:02:00,50.0,18.0,30.01,South,180,1.0,2.0,29,0.00,,,0.00,TxWx,2013-03-10 18:02:00,
2013-03-10 14:03:00,37.0,23.0,29.99,ESE,112,2.0,2.0,59,0.00,,,0.00,TxWx,2013-03-10 18:03:00,
2013-03-10 14:04:00,37.0,23.0,30.00,South,180,1.0,1.0,59,0.00,,,0.00,TxWx,2013-03-10 18:04:00,
2013-03-10 14:06:00,37.0,23.0,30.00,SSE,157,1.0,1.0,59,0.00,,,0.00,TxWx,2013-03-10 18:06:00,
2013-03-10 14:07:00,50.0,18.0,30.01,WSW,247,9.0,10.0,29,0.00,,,0.00,TxWx,2013-03-10 18:07:00,
2013-03-10 14:08:00,37.0,23.0,30.00,South,180,1.0,1.0,59,0.00,,,0.00,TxWx,2013-03-10 18:08:00,
2013-03-10 14:09:00,37.0,23.0,30.00,SSE,157,1.0,1.0,59,0.00,,,0.00,TxWx,2013-03-10 18:09:00,
2013-03-10 14:10:00,37.0,23.0,30.00,ESE,112,1.0,2.0,59,0.00,,,0.00,TxWx,2013-03-10 18:10:00,
2013-03-10 14:11:00,37.0,23.0,29.99,SSE,157,1.0,1.0,59,0.00,,,0.00,TxWx,2013-03-10 18:11:00,
2013-03-10 14:12:00,50.0,18.0,30.00,SSW,202,3.0,5.0,29,0.00,,,0.00,TxWx,2013-03-10 18:12:00,
2013-03-10 14:15:00,36.0,22.0,29.99,SE,135,1.0,2.0,60,0.00,,,0.00,TxWx,2013-03-10 18:15:00,
2013-03-10 14:16:00,36.0,22.0,30.00,SE,135,1.0,2.0,60,0.00,,,0.00,TxWx,2013-03-10 18:16:00,
2013-03-10 14:17:00,36.0,22.0,29.99,SSE,157,1.0,1.0,60,0.00,,,0.00,TxWx,2013-03-10 18:17:00,
2013-03-10 14:18:00,50.0,18.0,30.00,SW,225,1.0,3.0,30,0.00,,,0.00,TxWx,2013-03-10 18:18:00,
2013-03-10 14:19:00,36.0,22.0,29.99,SSE,157,1.0,1.0,60,0.00,,,0.00,TxWx,2013-03-10 18:19:00,
2013-03-10 14:23:00,50.0,18.0,30.00,SW,225,6.0,8.0,30,0.00,,,0.00,TxWx,2013-03-10 18:23:00,
2013-03-10 14:28:00,49.0,17.0,30.00,WSW,247,6.0,6.0,29,0.00,,,0.00,TxWx,2013-03-10 18:28:00,
2013-03-10 14:33:00,49.0,17.0,30.00,SW,225,6.0,6.0,29,0.00,,,0.00,TxWx,2013-03-10 18:33:00,
2013-03-10 14:38:00,49.0,17.0,30.00,South,180,6.0,6.0,29,0.00,,,0.00,TxWx,2013-03-10 18:38:00,
2013-03-10 14:43:00,49.0,17.0,30.00,NW,315,2.0,4.0,30,0.00,,,0.00,TxWx,2013-03-10 18:43:00,
2013-03-10 14:48:00,49.0,18.0,30.00,SW,225,4.0,4.0,30,0.00,,,0.00,TxWx,2013-03-10 18:48:00,
2013-03-10 14:53:00,49.0,18.0,29.99,SSW,202,5.0,5.0,30,0.00,,,0.00,TxWx,2013-03-10 18:53:00,
2013-03-10 14:58:00,49.0,18.0,30.00,SE,135,1.0,3.0,30,0.00,,,0.00,TxWx,2013-03-10 18:58:00,
2013-03-10 15:01:00,36.0,23.0,29.98,SSW,202,0.0,1.0,63,0.00,,,0.00,TxWx,2013-03-10 19:01:00,
2013-03-10 15:04:00,49.0,17.0,29.99,South,180,3.0,3.0,30,0.00,,,0.00,TxWx,2013-03-10 19:04:00,
2013-03-10 15:09:00,49.0,17.0,29.99,SE,135,3.0,4.0,30,0.00,,,0.00,TxWx,2013-03-10 19:09:00,
2013-03-10 15:10:00,36.0,23.0,29.97,SW,225,1.0,2.0,62,0.00,,,0.00,TxWx,2013-03-10 19:10:00,
2013-03-10 15:14:00,49.0,18.0,29.99,SSE,157,2.0,3.0,30,0.00,,,0.00,TxWx,2013-03-10 19:14:00,
2013-03-10 15:19:00,49.0,18.0,29.99,ESE,112,4.0,4.0,31,0.00,,,0.00,TxWx,2013-03-10 19:19:00,
2013-03-10 15:24:00,49.0,18.0,29.99,SE,135,8.0,8.0,31,0.00,,,0.00,TxWx,2013-03-10 19:24:00,
2013-03-10 15:29:00,49.0,18.0,29.99,SSW,202,1.0,2.0,31,0.00,,,0.00,TxWx,2013-03-10 19:29:00,
2013-03-10 15:34:00,49.0,18.0,29.98,SSE,157,4.0,4.0,30,0.00,,,0.00,TxWx,2013-03-10 19:34:00,
2013-03-10 15:39:00,49.0,19.0,29.99,SSW,202,2.0,3.0,31,0.00,,,0.00,TxWx,2013-03-10 19:39:00,
2013-03-10 15:45:00,49.0,19.0,29.99,South,180,4.0,5.0,31,0.00,,,0.00,TxWx,2013-03-10 19:45:00,
2013-03-10 15:50:00,49.0,19.0,29.99,ESE,112,3.0,4.0,31,0.00,,,0.00,TxWx,2013-03-10 19:50:00,
2013-03-10 15:55:00,49.0,18.0,29.98,East,90,5.0,5.0,30,0.00,,,0.00,TxWx,2013-03-10 19:55:00,
2013-03-10 16:00:00,49.0,18.0,29.98,East,90,3.0,5.0,31,0.00,,,0.00,TxWx,2013-03-10 20:00:00,
2013-03-10 16:01:00,34.0,23.0,29.97,ESE,112,3.0,3.0,67,0.00,,,0.00,TxWx,2013-03-10 20:01:00,
2013-03-10 16:05:00,49.0,19.0,29.98,NNE,22,3.0,3.0,31,0.00,,,0.00,TxWx,2013-03-10 20:05:00,
2013-03-10 16:10:00,48.0,18.0,29.98,ESE,112,6.0,7.0,31,0.00,,,0.00,TxWx,2013-03-10 20:10:00,
2013-03-10 16:16:00,48.0,18.0,29.98,SE,135,6.0,6.0,31,0.00,,,0.00,TxWx,2013-03-10 20:16:00,
2013-03-10 16:21:00,48.0,18.0,29.98,SE,135,6.0,8.0,31,0.00,,,0.00,TxWx,2013-03-10 20:21:00,
2013-03-10 16:26:00,48.0,18.0,29.98,SW,225,3.0,3.0,31,0.00,,,0.00,TxWx,2013-03-10 20:26:00,
2013-03-10 16:30:00,34.0,25.0,29.96,North,0,3.0,3.0,71,0.00,,,0.00,TxWx,2013-03-10 20:30:00,
2013-03-10 16:31:00,48.0,17.0,29.98,SSW,202,3.0,3.0,31,0.00,,,0.00,TxWx,2013-03-10 20:31:00,
2013-03-10 16:32:00,34.0,25.0,29.96,North,0,2.0,3.0,71,0.00,,,0.00,TxWx,2013-03-10 20:32:00,
2013-03-10 16:33:00,33.0,24.0,29.95,NNE,22,3.0,3.0,71,0.00,,,0.00,TxWx,2013-03-10 20:33:00,
2013-03-10 16:36:00,48.0,18.0,29.97,SE,135,4.0,5.0,31,0.00,,,0.00,TxWx,2013-03-10 20:36:00,
2013-03-10 16:41:00,48.0,19.0,29.97,SE,135,6.0,7.0,32,0.00,,,0.00,TxWx,2013-03-10 20:41:00,
2013-03-10 16:46:00,48.0,19.0,29.97,ESE,112,6.0,8.0,32,0.00,,,0.00,TxWx,2013-03-10 20:46:00,
2013-03-10 16:51:00,48.0,20.0,29.97,ESE,112,4.0,4.0,34,0.00,,,0.00,TxWx,2013-03-10 20:51:00,
2013-03-10 16:56:00,47.0,20.0,29.97,East,90,3.0,4.0,35,0.00,,,0.00,TxWx,2013-03-10 20:56:00,
2013-03-10 17:01:00,47.0,21.0,29.97,SE,135,2.0,2.0,37,0.00,,,0.00,TxWx,2013-03-10 21:01:00,
2013-03-10 17:07:00,46.0,20.0,29.97,SE,135,4.0,5.0,36,0.00,,,0.00,TxWx,2013-03-10 21:07:00,
2013-03-10 17:10:00,35.0,25.0,29.95,ESE,112,2.0,2.0,71,0.00,,,0.00,TxWx,2013-03-10 21:10:00,
2013-03-10 17:11:00,35.0,26.0,29.95,East,90,2.0,3.0,71,0.00,,,0.00,TxWx,2013-03-10 21:11:00,
2013-03-10 17:12:00,47.0,20.0,29.97,South,180,9.0,12.0,35,0.00,,,0.00,TxWx,2013-03-10 21:12:00,
2013-03-10 17:13:00,35.0,25.0,29.95,NNE,22,2.0,3.0,71,0.00,,,0.00,TxWx,2013-03-10 21:13:00,
2013-03-10 17:14:00,35.0,25.0,29.95,ENE,67,3.0,3.0,71,0.00,,,0.00,TxWx,2013-03-10 21:14:00,
2013-03-10 17:17:00,47.0,19.0,29.97,SSE,157,1.0,3.0,35,0.00,,,0.00,TxWx,2013-03-10 21:17:00,
2013-03-10 17:22:00,47.0,20.0,29.97,ESE,112,2.0,2.0,36,0.00,,,0.00,TxWx,2013-03-10 21:22:00,
2013-03-10 17:27:00,46.0,21.0,29.97,SE,135,3.0,3.0,38,0.00,,,0.00,TxWx,2013-03-10 21:27:00,
2013-03-10 17:32:00,46.0,21.0,29.97,ESE,112,1.0,2.0,38,0.00,,,0.00,TxWx,2013-03-10 21:32:00,
2013-03-10 17:37:00,45.0,20.0,29.97,West,270,1.0,1.0,39,0.00,,,0.00,TxWx,2013-03-10 21:37:00,
2013-03-10 17:42:00,45.0,20.0,29.97,SSE,157,1.0,4.0,39,0.00,,,0.00,TxWx,2013-03-10 21:42:00,
2013-03-10 17:47:00,45.0,21.0,29.97,East,90,5.0,5.0,40,0.00,,,0.00,TxWx,2013-03-10 21:47:00,
2013-03-10 17:53:00,45.0,21.0,29.97,ESE,112,5.0,5.0,40,0.00,,,0.00,TxWx,2013-03-10 21:53:00,
2013-03-10 17:58:00,45.0,21.0,29.97,ESE,112,4.0,7.0,41,0.00,,,0.00,TxWx,2013-03-10 21:58:00,
2013-03-10 18:03:00,45.0,21.0,29.97,SE,135,3.0,6.0,40,0.00,,,0.00,TxWx,2013-03-10 22:03:00,
2013-03-10 18:08:00,44.0,21.0,29.97,ESE,112,3.0,3.0,41,0.00,,,0.00,TxWx,2013-03-10 22:08:00,
2013-03-10 18:13:00,44.0,21.0,29.97,East,90,2.0,3.0,41,0.00,,,0.00,TxWx,2013-03-10 22:13:00,
2013-03-10 18:18:00,44.0,21.0,29.97,ENE,67,6.0,7.0,41,0.00,,,0.00,TxWx,2013-03-10 22:18:00,
2013-03-10 18:23:00,44.0,21.0,29.97,ESE,112,3.0,6.0,42,0.00,,,0.00,TxWx,2013-03-10 22:23:00,
2013-03-10 18:28:00,44.0,22.0,29.96,NNE,22,2.0,4.0,43,0.00,,,0.00,TxWx,2013-03-10 22:28:00,
2013-03-10 18:30:00,35.0,25.0,29.96,ESE,112,2.0,3.0,71,0.00,,,0.00,TxWx,2013-03-10 22:30:00,
2013-03-10 18:31:00,35.0,25.0,29.96,ESE,112,2.0,3.0,71,0.00,,,0.00,TxWx,2013-03-10 22:31:00,
2013-03-10 18:32:00,35.0,25.0,29.96,ESE,112,1.0,3.0,71,0.00,,,0.00,TxWx,2013-03-10 22:32:00,
2013-03-10 18:33:00,43.0,21.0,29.97,SE,135,3.0,4.0,43,0.00,,,0.00,TxWx,2013-03-10 22:33:00,
2013-03-10 18:34:00,35.0,25.0,29.95,NNE,22,5.0,5.0,71,0.00,,,0.00,TxWx,2013-03-10 22:34:00,
2013-03-10 18:38:00,43.0,21.0,29.97,SE,135,3.0,3.0,43,0.00,,,0.00,TxWx,2013-03-10 22:38:00,
2013-03-10 18:43:00,43.0,21.0,29.96,ESE,112,6.0,6.0,43,0.00,,,0.00,TxWx,2013-03-10 22:43:00,
2013-03-10 18:48:00,43.0,22.0,29.96,ENE,67,4.0,5.0,44,0.00,,,0.00,TxWx,2013-03-10 22:48:00,
2013-03-10 18:53:00,42.0,21.0,29.97,SE,135,3.0,3.0,44,0.00,,,0.00,TxWx,2013-03-10 22:53:00,
2013-03-10 18:58:00,42.0,21.0,29.97,SE,135,2.0,3.0,44,0.00,,,0.00,TxWx,2013-03-10 22:58:00,
2013-03-10 19:03:00,42.0,21.0,29.97,East,90,3.0,3.0,45,0.00,,,0.00,TxWx,2013-03-10 23:03:00,
2013-03-10 19:08:00,42.0,21.0,29.97,ENE,67,3.0,3.0,45,0.00,,,0.00,TxWx,2013-03-10 23:08:00,
2013-03-10 19:14:00,42.0,21.0,29.97,North,0,2.0,3.0,45,0.00,,,0.00,TxWx,2013-03-10 23:14:00,
2013-03-10 19:20:00,42.0,21.0,29.97,NNE,22,3.0,6.0,45,0.00,,,0.00,TxWx,2013-03-10 23:20:00,
2013-03-10 19:25:00,41.0,21.0,29.97,ESE,112,3.0,3.0,46,0.00,,,0.00,TxWx,2013-03-10 23:25:00,
2013-03-10 19:30:00,41.0,21.0,29.97,ESE,112,3.0,4.0,47,0.00,,,0.00,TxWx,2013-03-10 23:30:00,
2013-03-10 19:35:00,41.0,21.0,29.97,SE,135,5.0,5.0,47,0.00,,,0.00,TxWx,2013-03-10 23:35:00,
2013-03-10 19:40:00,41.0,21.0,29.97,SE,135,3.0,5.0,46,0.00,,,0.00,TxWx,2013-03-10 23:40:00,
2013-03-10 19:45:00,41.0,21.0,29.97,ENE,67,2.0,3.0,47,0.00,,,0.00,TxWx,2013-03-10 23:45:00,
2013-03-10 19:50:00,41.0,21.0,29.97,NE,45,3.0,3.0,47,0.00,,,0.00,TxWx,2013-03-10 23:50:00,
2013-03-10 19:55:00,41.0,21.0,29.98,ESE,112,1.0,3.0,47,0.00,,,0.00,TxWx,2013-03-10 23:55:00,
2013-03-10 20:00:00,41.0,21.0,29.97,SE,135,3.0,3.0,47,0.00,,,0.00,TxWx,2013-03-11 00:00:00,
2013-03-10 20:05:00,40.0,20.0,29.98,ESE,112,2.0,3.0,47,0.00,,,0.00,TxWx,2013-03-11 00:05:00,
2013-03-10 20:11:00,40.0,21.0,29.98,SE,135,2.0,3.0,48,0.00,,,0.00,TxWx,2013-03-11 00:11:00,
2013-03-10 20:16:00,40.0,21.0,29.99,SE,135,1.0,2.0,48,0.00,,,0.00,TxWx,2013-03-11 00:16:00,
2013-03-10 20:21:00,40.0,21.0,29.98,ESE,112,2.0,3.0,49,0.00,,,0.00,TxWx,2013-03-11 00:21:00,
2013-03-10 20:26:00,40.0,21.0,29.98,SSE,157,2.0,2.0,49,0.00,,,0.00,TxWx,2013-03-11 00:26:00,
2013-03-10 20:31:00,40.0,21.0,29.98,South,180,1.0,2.0,49,0.00,,,0.00,TxWx,2013-03-11 00:31:00,
2013-03-10 20:37:00,39.0,21.0,29.98,North,0,2.0,3.0,50,0.00,,,0.00,TxWx,2013-03-11 00:37:00,
2013-03-10 20:42:00,38.0,21.0,29.98,ENE,67,3.0,3.0,52,0.00,,,0.00,TxWx,2013-03-11 00:42:00,
2013-03-10 20:47:00,38.0,21.0,29.98,SE,135,1.0,2.0,53,0.00,,,0.00,TxWx,2013-03-11 00:47:00,
2013-03-10 20:55:00,38.0,21.0,29.99,SE,135,1.0,2.0,53,0.00,,,0.00,TxWx,2013-03-11 00:55:00,
2013-03-10 21:00:00,38.0,21.0,29.98,SSW,202,1.0,2.0,52,0.00,,,0.00,TxWx,2013-03-11 01:00:00,
2013-03-10 21:05:00,38.0,21.0,29.98,East,90,5.0,6.0,53,0.00,,,0.00,TxWx,2013-03-11 01:05:00,
2013-03-10 21:10:00,38.0,21.0,29.98,NE,45,2.0,2.0,53,0.00,,,0.00,TxWx,2013-03-11 01:10:00,
2013-03-10 21:15:00,38.0,22.0,29.99,SSE,157,1.0,1.0,54,0.00,,,0.00,TxWx,2013-03-11 01:15:00,
2013-03-10 21:20:00,38.0,22.0,29.98,NNE,22,3.0,3.0,54,0.00,,,0.00,TxWx,2013-03-11 01:20:00,
2013-03-10 21:25:00,38.0,22.0,29.99,WSW,247,1.0,2.0,54,0.00,,,0.00,TxWx,2013-03-11 01:25:00,
2013-03-10 21:30:00,38.0,21.0,29.99,SE,135,1.0,1.0,53,0.00,,,0.00,TxWx,2013-03-11 01:30:00,
2013-03-10 21:36:00,38.0,21.0,29.99,SSE,157,1.0,1.0,53,0.00,,,0.00,TxWx,2013-03-11 01:36:00,
2013-03-10 21:41:00,38.0,21.0,29.99,SSE,157,1.0,2.0,53,0.00,,,0.00,TxWx,2013-03-11 01:41:00,
2013-03-10 21:46:00,38.0,22.0,29.99,ESE,112,3.0,3.0,54,0.00,,,0.00,TxWx,2013-03-11 01:46:00,
2013-03-10 21:51:00,38.0,21.0,29.99,SSW,202,1.0,1.0,53,0.00,,,0.00,TxWx,2013-03-11 01:51:00,
2013-03-10 21:56:00,38.0,22.0,29.99,SSW,202,1.0,1.0,54,0.00,,,0.00,TxWx,2013-03-11 01:56:00,
2013-03-10 22:01:00,37.0,22.0,29.99,North,0,3.0,3.0,57,0.00,,,0.00,TxWx,2013-03-11 02:01:00,
2013-03-10 22:06:00,36.0,21.0,29.99,SE,135,2.0,2.0,58,0.00,,,0.00,TxWx,2013-03-11 02:06:00,
2013-03-10 22:11:00,36.0,21.0,29.98,ESE,112,2.0,3.0,58,0.00,,,0.00,TxWx,2013-03-11 02:11:00,
2013-03-10 22:16:00,37.0,22.0,29.98,ENE,67,3.0,3.0,58,0.00,,,0.00,TxWx,2013-03-11 02:16:00,
2013-03-10 22:22:00,37.0,22.0,29.98,East,90,3.0,4.0,57,0.00,,,0.00,TxWx,2013-03-11 02:22:00,
2013-03-10 22:27:00,37.0,22.0,29.99,ESE,112,1.0,3.0,57,0.00,,,0.00,TxWx,2013-03-11 02:27:00,
2013-03-10 22:32:00,37.0,22.0,29.99,ESE,112,3.0,4.0,57,0.00,,,0.00,TxWx,2013-03-11 02:32:00,
2013-03-10 22:37:00,37.0,22.0,29.99,East,90,1.0,2.0,57,0.00,,,0.00,TxWx,2013-03-11 02:37:00,
2013-03-10 22:42:00,37.0,22.0,29.99,East,90,3.0,3.0,56,0.00,,,0.00,TxWx,2013-03-11 02:42:00,
2013-03-10 22:47:00,38.0,22.0,29.99,ESE,112,3.0,3.0,56,0.00,,,0.00,TxWx,2013-03-11 02:47:00,
2013-03-10 22:52:00,38.0,22.0,29.99,South,180,1.0,1.0,56,0.00,,,0.00,TxWx,2013-03-11 02:52:00,
2013-03-10 22:57:00,38.0,22.0,29.99,South,180,1.0,1.0,56,0.00,,,0.00,TxWx,2013-03-11 02:57:00,
2013-03-10 23:02:00,38.0,22.0,30.00,South,180,0.0,1.0,56,0.00,,,0.00,TxWx,2013-03-11 03:02:00,
2013-03-10 23:07:00,38.0,22.0,29.99,South,180,1.0,1.0,55,0.00,,,0.00,TxWx,2013-03-11 03:07:00,
2013-03-10 23:15:00,38.0,22.0,29.99,NW,315,2.0,3.0,55,0.00,,,0.00,TxWx,2013-03-11 03:15:00,
2013-03-10 23:20:00,38.0,22.0,29.99,SE,135,1.0,1.0,56,0.00,,,0.00,TxWx,2013-03-11 03:20:00,
2013-03-10 23:25:00,37.0,22.0,29.99,SW,225,1.0,1.0,56,0.00,,,0.00,TxWx,2013-03-11 03:25:00,
2013-03-10 23:30:00,37.0,22.0,29.99,South,180,1.0,1.0,57,0.00,,,0.00,TxWx,2013-03-11 03:30:00,
2013-03-10 23:35:00,36.0,21.0,29.99,SSE,157,0.0,1.0,57,0.00,,,0.00,TxWx,2013-03-11 03:35:00,
2013-03-10 23:40:00,36.0,21.0,29.99,SSE,157,1.0,1.0,58,0.00,,,0.00,TxWx,2013-03-11 03:40:00,
2013-03-10 23:45:00,37.0,23.0,29.99,SE,135,3.0,3.0,58,0.00,,,0.00,TxWx,2013-03-11 03:45:00,
2013-03-10 23:50:00,37.0,23.0,29.99,South,180,1.0,1.0,58,0.00,,,0.00,TxWx,2013-03-11 03:50:00,
2013-03-10 23:55:00,37.0,23.0,30.00,SSW,202,0.0,0.0,58,0.00,,,0.00,TxWx,2013-03-11 03:55:00,